Time;durP1;ratioP1;P1;durP2;ratioP2;P2;SDS_P1;SDS_P2;PMS_P1;PMS_P2;Temp;Humidity;BMP_temperature;BMP_pressure;BME280_temperature;BME280_humidity;BME280_pressure;Samples;Min_cycle;Max_cycle;Signal;HPM_P1;HPM_P2
2021/10/12 00:02:49;;;;;;;9.70;1.80;;;;;;;;;;4305012;33;20239;-74
2021/10/12 00:05:17;;;;;;;9.73;1.70;;;;;;;;;;4287078;33;20172;-73
2021/10/12 00:07:44;;;;;;;8.20;2.42;;;;;;;;;;4289903;33;20228;-73
2021/10/12 00:10:09;;;;;;;9.02;2.00;;;;;;;;;;4290167;33;20133;-74
2021/10/12 00:18:54;;;;;;;8.45;1.67;;;;;;;;;;4216639;34;20170;-74
2021/10/12 00:21:22;;;;;;;9.65;1.50;;;;;;;;;;4216999;34;20360;-74
2021/10/12 00:23:50;;;;;;;7.18;1.60;;;;;;;;;;4216748;34;20162;-74
2021/10/12 00:26:15;;;;;;;7.22;1.73;;;;;;;;;;4239335;33;20179;-75
2021/10/12 00:28:41;;;;;;;10.50;2.08;;;;;;;;;;4262687;33;20193;-74
2021/10/12 00:31:09;;;;;;;10.63;2.30;;;;;;;;;;4262259;33;20157;-75
2021/10/12 00:36:42;;;;;;;9.07;1.90;;;;;;;;;;4289959;33;20580;-75
2021/10/12 00:39:19;;;;;;;11.30;1.73;;;;;;;;;;4289624;33;20171;-76
2021/10/12 00:41:44;;;;;;;11.50;1.67;;;;;;;;;;4289711;33;20136;-74
2021/10/12 00:44:10;;;;;;;11.02;1.70;;;;;;;;;;4289394;33;20503;-74
2021/10/12 00:46:48;;;;;;;7.82;1.40;;;;;;;;;;4289831;33;20562;-75
2021/10/12 00:52:29;;;;;;;7.50;1.75;;;;;;;;;;4245173;33;20165;-74
2021/10/12 00:58:09;;;;;;;8.68;1.70;;;;;;;;;;4216918;34;20663;-75
2021/10/12 01:00:44;;;;;;;9.77;1.85;;;;;;;;;;4216990;34;20158;-75
2021/10/12 01:03:28;;;;;;;8.10;1.40;;;;;;;;;;4225717;34;20593;-75
2021/10/12 01:05:58;;;;;;;7.28;1.50;;;;;;;;;;4230617;34;20502;-74
2021/10/12 01:09:02;;;;;;;9.30;1.60;;;;;;;;;;4247049;33;20509;-74
2021/10/12 01:11:33;;;;;;;9.23;1.60;;;;;;;;;;4264369;33;20177;-74
2021/10/12 01:14:31;;;;;;;7.78;1.70;;;;;;;;;;4272478;33;20150;-74
2021/10/12 01:17:19;;;;;;;10.05;1.70;;;;;;;;;;4247698;33;20239;-74
2021/10/12 01:19:47;;;;;;;9.50;2.00;;;;;;;;;;4270293;33;20168;-74
2021/10/12 01:22:53;;;;;;;10.65;1.80;;;;;;;;;;4260990;33;20548;-74
2021/10/12 01:25:21;;;;;;;9.80;2.12;;;;;;;;;;4272400;33;20514;-74
2021/10/12 01:27:49;;;;;;;10.65;1.98;;;;;;;;;;4273468;33;20138;-74
2021/10/12 01:30:19;;;;;;;12.73;2.00;;;;;;;;;;4272674;33;20562;-74
2021/10/12 01:32:45;;;;;;;9.20;2.10;;;;;;;;;;4272548;33;20179;-75
2021/10/12 01:35:12;;;;;;;10.63;1.90;;;;;;;;;;4260714;33;20489;-74
2021/10/12 01:37:43;;;;;;;8.60;1.83;;;;;;;;;;4272458;33;20160;-74
2021/10/12 01:41:05;;;;;;;8.63;1.65;;;;;;;;;;4286015;33;20633;-74
2021/10/12 01:43:21;;;;;;;9.07;1.80;;;;;;;;;;4284769;33;20193;-74
2021/10/12 01:46:03;;;;;;;7.85;2.08;;;;;;;;;;4289219;33;20144;-74
2021/10/12 01:48:28;;;;;;;13.77;2.50;;;;;;;;;;4288468;33;20203;-74
2021/10/12 01:54:01;;;;;;;7.90;1.55;;;;;;;;;;4286688;33;20273;-74
2021/10/12 01:56:27;;;;;;;9.40;1.70;;;;;;;;;;4288233;33;20601;-74
2021/10/12 01:58:55;;;;;;;9.15;1.85;;;;;;;;;;4288489;33;20133;-75
2021/10/12 02:01:21;;;;;;;9.93;1.87;;;;;;;;;;4275143;33;20157;-74
2021/10/12 02:03:46;;;;;;;7.90;1.65;;;;;;;;;;4275135;33;20575;-74
2021/10/12 02:06:12;;;;;;;7.55;1.77;;;;;;;;;;4288199;33;20160;-75
2021/10/12 02:08:38;;;;;;;12.43;1.90;;;;;;;;;;4275394;33;20168;-75
2021/10/12 02:11:04;;;;;;;6.50;1.50;;;;;;;;;;4277606;33;20312;-75
2021/10/12 02:13:29;;;;;;;5.68;1.70;;;;;;;;;;4302640;33;20129;-75
2021/10/12 02:15:55;;;;;;;7.78;1.60;;;;;;;;;;4302982;33;20128;-74
2021/10/12 02:18:21;;;;;;;8.88;2.00;;;;;;;;;;4289304;33;20223;-75
2021/10/12 02:20:47;;;;;;;6.30;1.77;;;;;;;;;;4288646;33;20191;-75
2021/10/12 02:23:12;;;;;;;13.05;2.60;;;;;;;;;;4302591;33;20463;-75
2021/10/12 02:25:38;;;;;;;13.20;2.20;;;;;;;;;;4302526;33;20657;-75
2021/10/12 02:28:09;;;;;;;10.27;2.05;;;;;;;;;;4302168;33;20133;-75
2021/10/12 02:30:35;;;;;;;10.27;2.15;;;;;;;;;;4289379;33;20570;-75
2021/10/12 02:33:00;;;;;;;11.15;2.10;;;;;;;;;;4302288;33;20163;-75
2021/10/12 02:35:25;;;;;;;13.25;2.10;;;;;;;;;;4302222;33;20133;-75
2021/10/12 02:37:56;;;;;;;8.30;2.37;;;;;;;;;;4302326;33;20257;-75
2021/10/12 02:40:22;;;;;;;11.57;2.50;;;;;;;;;;4302116;33;20622;-75
2021/10/12 02:42:56;;;;;;;6.57;2.15;;;;;;;;;;4302021;33;20140;-75
2021/10/12 02:45:22;;;;;;;7.20;2.17;;;;;;;;;;4289615;33;20187;-75
2021/10/12 02:47:47;;;;;;;10.10;2.35;;;;;;;;;;4302512;33;20140;-75
2021/10/12 02:53:13;;;;;;;12.88;2.50;;;;;;;;;;4302604;33;20198;-75
2021/10/12 02:56:16;;;;;;;12.25;3.08;;;;;;;;;;4302715;33;20523;-75
2021/10/12 03:02:01;;;;;;;13.05;2.95;;;;;;;;;;4301046;33;20191;-75
2021/10/12 03:04:46;;;;;;;;;;;;;;;;;;;;;
2021/10/12 03:08:12;;;;;;;9.82;2.75;;;;;;;;;;4297453;33;20180;-75
2021/10/12 03:10:31;;;;;;;11.52;2.65;;;;;;;;;;4299611;33;20160;-75
2021/10/12 03:13:22;;;;;;;9.80;2.67;;;;;;;;;;4301920;33;20178;-75
2021/10/12 03:15:47;;;;;;;10.35;3.20;;;;;;;;;;4301710;33;20188;-75
2021/10/12 03:18:39;;;;;;;8.60;2.62;;;;;;;;;;4301725;33;20554;-75
2021/10/12 03:21:04;;;;;;;12.25;2.90;;;;;;;;;;4286755;33;20168;-75
2021/10/12 03:23:48;;;;;;;11.15;3.30;;;;;;;;;;4301935;33;20200;-75
2021/10/12 03:26:18;;;;;;;12.00;3.47;;;;;;;;;;4302120;33;20167;-75
2021/10/12 03:28:53;;;;;;;9.50;3.55;;;;;;;;;;4302089;33;20140;-75
2021/10/12 03:31:21;;;;;;;13.27;3.53;;;;;;;;;;4301451;33;20170;-75
2021/10/12 03:33:49;;;;;;;9.52;2.60;;;;;;;;;;4288886;33;20152;-75
2021/10/12 03:39:18;;;;;;;9.23;3.12;;;;;;;;;;4242287;33;20221;-75
2021/10/12 03:41:43;;;;;;;10.15;3.03;;;;;;;;;;4243099;33;20125;-75
2021/10/12 03:44:12;;;;;;;18.87;4.45;;;;;;;;;;4242613;33;20201;-75
2021/10/12 03:46:42;;;;;;;8.85;3.62;;;;;;;;;;4242502;33;20165;-75
2021/10/12 03:49:08;;;;;;;8.85;3.67;;;;;;;;;;4236721;33;20189;-75
2021/10/12 03:51:36;;;;;;;13.73;3.60;;;;;;;;;;4301803;33;20154;-75
2021/10/12 03:54:29;;;;;;;10.00;3.33;;;;;;;;;;4288139;33;20191;-75
2021/10/12 03:57:00;;;;;;;12.05;3.80;;;;;;;;;;4288962;33;20232;-75
2021/10/12 04:00:04;;;;;;;10.82;3.95;;;;;;;;;;4301590;33;20152;-75
2021/10/12 04:02:34;;;;;;;12.50;4.12;;;;;;;;;;4256797;33;20149;-75
2021/10/12 04:05:55;;;;;;;;;;;;;;;;;;;;;
2021/10/12 04:10:59;;;;;;;12.37;4.28;;;;;;;;;;4299148;33;20231;-75
2021/10/12 04:13:35;;;;;;;15.75;4.97;;;;;;;;;;4288399;33;20201;-75
2021/10/12 04:22:35;;;;;;;11.68;4.68;;;;;;;;;;4200281;34;20730;-76
2021/10/12 04:26:11;;;;;;;;;;;;;;;;;;;;;
2021/10/12 04:34:34;;;;;;;16.40;6.75;;;;;;;;;;4301704;33;20383;-77
2021/10/12 04:37:02;;;;;;;14.60;6.70;;;;;;;;;;4284938;33;20219;-76
2021/10/12 04:40:03;;;;;;;20.30;7.60;;;;;;;;;;4287931;33;20183;-75
2021/10/12 04:42:45;;;;;;;;;;;;;;;;;;;;;
2021/10/12 04:45:19;;;;;;;20.00;7.35;;;;;;;;;;4304470;33;20179;-75
2021/10/12 04:47:45;;;;;;;13.93;6.57;;;;;;;;;;4304738;33;20135;-75
2021/10/12 04:50:10;;;;;;;18.00;7.20;;;;;;;;;;4303484;33;20461;-75
2021/10/12 04:52:36;;;;;;;19.00;7.47;;;;;;;;;;4290592;33;20219;-75
2021/10/12 04:55:04;;;;;;;18.75;7.25;;;;;;;;;;4304130;33;20271;-76
2021/10/12 04:57:45;;;;;;;16.12;6.60;;;;;;;;;;4303397;33;20176;-76
2021/10/12 05:00:28;;;;;;;20.90;7.95;;;;;;;;;;4303959;33;20137;-75
2021/10/12 05:02:53;;;;;;;24.90;8.10;;;;;;;;;;4304292;33;20129;-75
2021/10/12 05:05:18;;;;;;;21.17;8.07;;;;;;;;;;4290503;33;20251;-75
2021/10/12 05:07:44;;;;;;;14.73;7.28;;;;;;;;;;4290029;33;20187;-75
2021/10/12 05:10:18;;;;;;;16.73;8.02;;;;;;;;;;4304326;33;20141;-75
2021/10/12 05:12:43;;;;;;;19.12;8.25;;;;;;;;;;4302303;33;20172;-76
2021/10/12 05:15:09;;;;;;;21.27;8.60;;;;;;;;;;4303813;33;20543;-75
2021/10/12 05:17:46;;;;;;;18.55;8.23;;;;;;;;;;4303158;33;20152;-75
2021/10/12 05:20:11;;;;;;;23.70;9.00;;;;;;;;;;4291152;33;20237;-76
2021/10/12 05:22:50;;;;;;;17.90;8.55;;;;;;;;;;4290061;33;20169;-76
2021/10/12 05:25:16;;;;;;;25.20;9.85;;;;;;;;;;4290380;33;20160;-76
2021/10/12 05:28:02;;;;;;;21.95;10.20;;;;;;;;;;4289965;33;20191;-75
2021/10/12 05:30:28;;;;;;;25.77;9.98;;;;;;;;;;4303112;33;20558;-75
2021/10/12 05:32:59;;;;;;;21.80;8.55;;;;;;;;;;4303515;33;20125;-76
2021/10/12 05:35:24;;;;;;;19.10;9.60;;;;;;;;;;4290176;33;20201;-74
2021/10/12 05:37:50;;;;;;;19.58;9.55;;;;;;;;;;4303307;33;20203;-75
2021/10/12 05:40:15;;;;;;;21.48;9.00;;;;;;;;;;4289843;33;20546;-74
2021/10/12 05:42:51;;;;;;;20.98;9.20;;;;;;;;;;4303279;33;20129;-74
2021/10/12 05:45:39;;;;;;;21.02;8.50;;;;;;;;;;4303590;33;20148;-77
2021/10/12 05:48:12;;;;;;;24.83;9.60;;;;;;;;;;4289051;33;20141;-75
2021/10/12 05:50:47;;;;;;;21.52;8.30;;;;;;;;;;4302805;33;20447;-74
2021/10/12 05:53:41;;;;;;;;;;;;;;;;;;;;;
2021/10/12 05:56:37;;;;;;;;;;;;;;;;;;;;;
2021/10/12 05:59:16;;;;;;;20.50;8.05;;;;;;;;;;4299435;33;20156;-75
2021/10/12 06:01:41;;;;;;;20.60;7.30;;;;;;;;;;4302387;33;20235;-75
2021/10/12 06:04:08;;;;;;;25.50;8.18;;;;;;;;;;4302543;33;20501;-74
2021/10/12 06:12:38;;;;;;;26.62;7.20;;;;;;;;;;4293056;33;20176;-75
2021/10/12 06:15:04;;;;;;;23.42;7.07;;;;;;;;;;4285932;33;20180;-75
2021/10/12 06:17:35;;;;;;;21.23;6.00;;;;;;;;;;4303094;33;20144;-75
2021/10/12 06:20:30;;;;;;;26.83;6.60;;;;;;;;;;4288671;33;20183;-76
2021/10/12 06:22:58;;;;;;;26.95;5.30;;;;;;;;;;4279735;33;20176;-74
2021/10/12 06:25:56;;;;;;;18.55;4.65;;;;;;;;;;4288885;33;20173;-77
2021/10/12 06:28:43;;;;;;;24.50;5.12;;;;;;;;;;4299445;33;20249;-75
2021/10/12 06:31:18;;;;;;;18.02;4.75;;;;;;;;;;4275074;33;20160;-74
2021/10/12 06:33:51;;;;;;;20.17;4.53;;;;;;;;;;4274841;33;20171;-75
2021/10/12 06:36:17;;;;;;;27.77;5.40;;;;;;;;;;4288353;33;20133;-75
2021/10/12 06:38:43;;;;;;;19.42;6.25;;;;;;;;;;4287572;33;20168;-76
2021/10/12 06:41:35;;;;;;;17.42;3.90;;;;;;;;;;4274444;33;20152;-75
2021/10/12 06:47:06;;;;;;;15.32;4.03;;;;;;;;;;4288019;33;20506;-75
2021/10/12 06:49:40;;;;;;;15.07;3.55;;;;;;;;;;4273587;33;20646;-75
2021/10/12 06:52:11;;;;;;;14.48;2.87;;;;;;;;;;4287267;33;20128;-75
2021/10/12 06:54:46;;;;;;;13.48;3.28;;;;;;;;;;4274251;33;20175;-75
2021/10/12 06:57:22;;;;;;;;;;;;;;;;;;;;;
2021/10/12 07:02:41;;;;;;;11.38;2.28;;;;;;;;;;4279671;33;20223;-76
2021/10/12 07:05:32;;;;;;;11.50;2.55;;;;;;;;;;4288268;33;20136;-77
2021/10/12 07:08:22;;;;;;;13.35;2.85;;;;;;;;;;4287578;33;20505;-77
2021/10/12 07:10:48;;;;;;;13.62;3.42;;;;;;;;;;4270138;33;20289;-78
2021/10/12 07:13:13;;;;;;;10.77;2.75;;;;;;;;;;4286005;33;20168;-76
2021/10/12 07:15:42;;;;;;;9.95;2.83;;;;;;;;;;4287584;33;20148;-77
2021/10/12 07:18:29;;;;;;;12.30;3.85;;;;;;;;;;4285899;33;20173;-77
2021/10/12 07:21:00;;;;;;;13.20;3.25;;;;;;;;;;4274631;33;20153;-77
2021/10/12 07:23:36;;;;;;;14.13;3.50;;;;;;;;;;4286217;33;20555;-76
2021/10/12 07:27:11;;;;;;;13.27;3.85;;;;;;;;;;4274416;33;20159;-75
2021/10/12 07:29:10;;;;;;;17.55;3.58;;;;;;;;;;4282171;33;20203;-76
2021/10/12 07:31:42;;;;;;;19.30;4.18;;;;;;;;;;4274082;33;20169;-76
2021/10/12 07:34:07;;;;;;;18.60;5.07;;;;;;;;;;4287295;33;20137;-74
2021/10/12 07:36:33;;;;;;;18.23;5.03;;;;;;;;;;4286158;33;20239;-75
2021/10/12 07:38:58;;;;;;;14.02;4.97;;;;;;;;;;4274159;33;20224;-75
2021/10/12 07:41:32;;;;;;;16.77;5.00;;;;;;;;;;4287283;33;20172;-75
2021/10/12 07:43:58;;;;;;;18.25;4.68;;;;;;;;;;4285929;33;20168;-75
2021/10/12 07:46:26;;;;;;;16.17;5.32;;;;;;;;;;4274028;33;20215;-76
2021/10/12 07:48:57;;;;;;;23.25;5.40;;;;;;;;;;4274167;33;20169;-75
2021/10/12 07:51:23;;;;;;;19.83;5.18;;;;;;;;;;4274007;33;20184;-75
2021/10/12 07:53:50;;;;;;;17.15;4.25;;;;;;;;;;4286210;33;20169;-75
2021/10/12 07:59:18;;;;;;;18.10;3.97;;;;;;;;;;4287261;33;20164;-74
2021/10/12 08:01:59;;;;;;;;;;;;;;;;;;;;;
2021/10/12 08:04:24;;;;;;;13.65;3.20;;;;;;;;;;4286773;33;20144;-72
2021/10/12 08:06:50;;;;;;;13.15;3.45;;;;;;;;;;4273661;33;20175;-76
2021/10/12 08:09:16;;;;;;;11.10;2.70;;;;;;;;;;4274208;33;20146;-75
2021/10/12 08:12:09;;;;;;;13.32;2.95;;;;;;;;;;4285261;33;20235;-74
2021/10/12 08:18:00;;;;;;;10.35;2.35;;;;;;;;;;4277584;33;20194;-75
2021/10/12 08:20:42;;;;;;;12.68;1.83;;;;;;;;;;4275600;33;20195;-75
2021/10/12 08:27:22;;;;;;;8.48;2.28;;;;;;;;;;4273542;33;20177;-75
2021/10/12 08:29:49;;;;;;;11.63;2.28;;;;;;;;;;4267995;33;20234;-75
2021/10/12 08:32:33;;;;;;;7.78;1.90;;;;;;;;;;4257810;33;20173;-77
2021/10/12 08:35:39;;;;;;;10.30;2.10;;;;;;;;;;4273163;33;20177;-77
2021/10/12 08:38:39;;;;;;;;;;;;;;;;;;;;;
2021/10/12 08:41:35;;;;;;;;;;;;;;;;;;;;;
2021/10/12 08:44:03;;;;;;;7.07;2.05;;;;;;;;;;4183959;34;20202;-77
2021/10/12 08:46:58;;;;;;;;;;;;;;;;;;;;;
2021/10/12 08:52:47;;;;;;;8.20;1.80;;;;;;;;;;4188803;34;20170;-78
2021/10/12 08:55:56;;;;;;;;;;;;;;;;;;;;;
2021/10/12 09:01:38;;;;;;;13.62;2.35;;;;;;;;;;4229959;33;20252;-75
2021/10/12 09:04:03;;;;;;;10.90;2.10;;;;;;;;;;4242836;33;20196;-75
2021/10/12 09:06:33;;;;;;;10.75;2.12;;;;;;;;;;4244271;33;20520;-75
2021/10/12 09:09:27;;;;;;;11.57;2.25;;;;;;;;;;4244802;33;20162;-75
2021/10/12 09:12:58;;;;;;;;;;;;;;;;;;;;;
2021/10/12 09:15:27;;;;;;;8.25;1.52;;;;;;;;;;4252527;33;20199;-76
2021/10/12 09:17:58;;;;;;;10.10;1.70;;;;;;;;;;4276116;33;20256;-74
2021/10/12 09:20:24;;;;;;;8.10;1.60;;;;;;;;;;4275128;33;20129;-75
2021/10/12 09:23:24;;;;;;;10.13;2.08;;;;;;;;;;4261595;33;20180;-74
2021/10/12 09:26:02;;;;;;;10.07;1.58;;;;;;;;;;4250946;33;20160;-74
2021/10/12 09:28:33;;;;;;;8.75;1.65;;;;;;;;;;4275008;33;20212;-74
2021/10/12 09:30:59;;;;;;;8.45;1.80;;;;;;;;;;4273554;33;20618;-74
2021/10/12 09:33:25;;;;;;;12.65;3.03;;;;;;;;;;4261282;33;20187;-75
2021/10/12 09:36:34;;;;;;;;;;;;;;;;;;;;;
2021/10/12 09:45:34;;;;;;;8.25;1.48;;;;;;;;;;4257420;33;20196;-75
2021/10/12 09:48:18;;;;;;;3.87;1.05;;;;;;;;;;4229642;34;20542;-75
2021/10/12 09:50:50;;;;;;;6.65;1.70;;;;;;;;;;4260963;33;20208;-75
2021/10/12 09:53:31;;;;;;;6.07;1.30;;;;;;;;;;4261150;33;20200;-74
2021/10/12 09:56:20;;;;;;;6.43;1.50;;;;;;;;;;4261243;33;20236;-76
2021/10/12 09:58:48;;;;;;;10.05;1.67;;;;;;;;;;4252216;33;20169;-77
2021/10/12 10:01:20;;;;;;;5.30;1.25;;;;;;;;;;4273005;33;20199;-77
2021/10/12 10:03:56;;;;;;;4.15;1.10;;;;;;;;;;4260960;33;20252;-78
2021/10/12 10:06:44;;;;;;;4.45;1.40;;;;;;;;;;4273365;33;20149;-79
2021/10/12 10:09:47;;;;;;;4.53;1.08;;;;;;;;;;4272854;33;20621;-79
2021/10/12 10:12:13;;;;;;;4.07;0.90;;;;;;;;;;4253008;33;20267;-79
2021/10/12 10:14:52;;;;;;;2.35;0.93;;;;;;;;;;4286887;33;20212;-77
2021/10/12 10:17:43;;;;;;;3.97;0.70;;;;;;;;;;4273341;33;20571;-78
2021/10/12 10:20:16;;;;;;;2.90;1.12;;;;;;;;;;4284040;33;20235;-77
2021/10/12 10:22:52;;;;;;;3.25;1.10;;;;;;;;;;4287471;33;20161;-77
2021/10/12 10:25:38;;;;;;;5.37;0.80;;;;;;;;;;4274832;33;20170;-77
2021/10/12 10:28:24;;;;;;;5.90;0.80;;;;;;;;;;4275115;33;20191;-77
2021/10/12 10:31:12;;;;;;;5.55;0.95;;;;;;;;;;4274134;33;20165;-77
2021/10/12 10:33:43;;;;;;;3.53;1.02;;;;;;;;;;4288198;33;20245;-77
2021/10/12 10:36:15;;;;;;;3.60;0.88;;;;;;;;;;4286392;33;20191;-79
2021/10/12 10:38:47;;;;;;;3.28;0.93;;;;;;;;;;4286722;33;20171;-78
2021/10/12 10:41:13;;;;;;;4.90;1.00;;;;;;;;;;4288285;33;20176;-77
2021/10/12 10:43:58;;;;;;;5.03;1.08;;;;;;;;;;4274498;33;20212;-77
2021/10/12 10:46:59;;;;;;;5.80;1.58;;;;;;;;;;4287590;33;20224;-76
2021/10/12 10:58:25;;;;;;;6.18;1.30;;;;;;;;;;4285642;33;20170;-77
2021/10/12 11:00:57;;;;;;;4.47;0.98;;;;;;;;;;4285948;33;20206;-78
2021/10/12 11:03:25;;;;;;;6.07;1.30;;;;;;;;;;4281532;33;20234;-77
2021/10/12 11:05:52;;;;;;;3.65;1.00;;;;;;;;;;4274444;33;20160;-78
2021/10/12 11:08:17;;;;;;;3.97;0.98;;;;;;;;;;4286370;33;20192;-78
2021/10/12 11:10:43;;;;;;;4.87;1.37;;;;;;;;;;4274228;33;20551;-76
2021/10/12 11:16:49;;;;;;;;;;;;;;;;;;;;;
2021/10/12 11:19:42;;;;;;;4.07;0.95;;;;;;;;;;4287610;33;20188;-77
2021/10/12 11:22:20;;;;;;;;;;;;;;;;;;;;;
2021/10/12 11:24:51;;;;;;;4.53;0.80;;;;;;;;;;4278684;33;20497;-76
2021/10/12 11:27:29;;;;;;;4.30;0.90;;;;;;;;;;4286409;33;20183;-75
2021/10/12 11:30:28;;;;;;;1.95;0.90;;;;;;;;;;4286447;33;20165;-76
2021/10/12 11:33:06;;;;;;;2.37;0.57;;;;;;;;;;4275351;33;20172;-76
2021/10/12 11:35:33;;;;;;;2.78;0.50;;;;;;;;;;4286277;33;20204;-76
2021/10/12 11:37:58;;;;;;;2.45;0.90;;;;;;;;;;4286352;33;20161;-76
2021/10/12 11:40:27;;;;;;;3.65;1.10;;;;;;;;;;4285629;33;20625;-75
2021/10/12 11:45:57;;;;;;;1.58;0.70;;;;;;;;;;4228360;34;20194;-75
2021/10/12 11:48:35;;;;;;;;;;;;;;;;;;;;;
2021/10/12 11:54:07;;;;;;;1.98;0.57;;;;;;;;;;4290315;33;20505;-76
2021/10/12 11:59:59;;;;;;;;;;;;;;;;;;;;;
2021/10/12 12:02:31;;;;;;;3.45;0.80;;;;;;;;;;4278223;33;20149;-75
2021/10/12 12:05:14;;;;;;;2.87;1.00;;;;;;;;;;4276680;33;20503;-76
2021/10/12 12:07:42;;;;;;;4.12;1.10;;;;;;;;;;4296571;33;20247;-75
2021/10/12 12:13:25;;;;;;;;;;;;;;;;;;;;;
2021/10/12 12:15:52;;;;;;;2.78;0.90;;;;;;;;;;4273697;33;20167;-69
2021/10/12 12:21:26;;;;;;;1.10;0.52;;;;;;;;;;4259189;33;20149;-75
2021/10/12 12:23:55;;;;;;;2.65;0.82;;;;;;;;;;4261407;33;20216;-75
2021/10/12 12:26:21;;;;;;;3.10;0.60;;;;;;;;;;4261242;33;20312;-75
2021/10/12 12:28:47;;;;;;;3.92;0.88;;;;;;;;;;4273467;33;20227;-75
2021/10/12 12:31:33;;;;;;;1.12;0.50;;;;;;;;;;4261246;33;20484;-75
2021/10/12 12:34:05;;;;;;;2.17;0.70;;;;;;;;;;4273241;33;20188;-75
2021/10/12 12:37:07;;;;;;;2.97;0.57;;;;;;;;;;4261123;33;20255;-75
2021/10/12 12:43:14;;;;;;;;;;;;;;;;;;;;;
2021/10/12 12:49:55;;;;;;;;;;;;;;;;;;;;;
2021/10/12 12:52:06;;;;;;;1.10;0.60;;;;;;;;;;4239909;33;20294;-75
2021/10/12 12:54:41;;;;;;;2.42;0.60;;;;;;;;;;4275849;33;20177;-74
2021/10/12 12:57:16;;;;;;;2.45;0.68;;;;;;;;;;4289290;33;20168;-73
2021/10/12 12:59:44;;;;;;;1.95;0.60;;;;;;;;;;4275813;33;20230;-75
2021/10/12 13:02:20;;;;;;;3.17;0.75;;;;;;;;;;4289018;33;20634;-75
2021/10/12 13:04:56;;;;;;;3.33;0.70;;;;;;;;;;4275559;33;20157;-75
2021/10/12 13:07:25;;;;;;;3.05;0.98;;;;;;;;;;4289179;33;20171;-76
2021/10/12 13:09:51;;;;;;;6.72;1.02;;;;;;;;;;4289265;33;20149;-76
2021/10/12 13:12:42;;;;;;;3.55;0.90;;;;;;;;;;4276373;33;20183;-75
2021/10/12 13:15:12;;;;;;;5.22;1.00;;;;;;;;;;4275876;33;20173;-74
2021/10/12 13:17:38;;;;;;;4.32;0.90;;;;;;;;;;4289410;33;20212;-75
2021/10/12 13:20:22;;;;;;;14.18;7.20;;;;;;;;;;4276308;33;20180;-74
2021/10/12 13:22:48;;;;;;;7.00;5.30;;;;;;;;;;4275822;33;20165;-74
2021/10/12 13:25:13;;;;;;;3.42;0.95;;;;;;;;;;4280351;33;20176;-74
2021/10/12 13:27:41;;;;;;;4.28;0.75;;;;;;;;;;4282574;33;20212;-75
2021/10/12 13:30:07;;;;;;;5.43;0.80;;;;;;;;;;4274139;33;20164;-74
2021/10/12 13:32:33;;;;;;;4.05;0.85;;;;;;;;;;4275258;33;20253;-74
2021/10/12 13:35:01;;;;;;;1.80;0.82;;;;;;;;;;4275369;33;20161;-75
2021/10/12 13:37:43;;;;;;;5.37;1.20;;;;;;;;;;4288174;33;20153;-76
2021/10/12 13:40:08;;;;;;;7.37;1.10;;;;;;;;;;4288859;33;20140;-73
2021/10/12 13:42:34;;;;;;;3.55;0.90;;;;;;;;;;4275158;33;20164;-75
2021/10/12 13:45:12;;;;;;;3.13;0.67;;;;;;;;;;4275439;33;20215;-75
2021/10/12 13:51:15;;;;;;;;;;;;;;;;;;;;;
2021/10/12 13:53:30;;;;;;;5.75;0.90;;;;;;;;;;4226324;33;20241;-74
2021/10/12 13:56:06;;;;;;;9.60;1.10;;;;;;;;;;4259739;33;20199;-75
2021/10/12 13:59:33;;;;;;;10.85;1.42;;;;;;;;;;4275441;33;20199;-75
2021/10/12 14:01:39;;;;;;;2.35;0.95;;;;;;;;;;4280005;33;20203;-75
2021/10/12 14:04:16;;;;;;;4.97;0.95;;;;;;;;;;4275236;33;20169;-74
2021/10/12 14:06:48;;;;;;;4.28;0.60;;;;;;;;;;4275681;33;20156;-74
2021/10/12 14:09:21;;;;;;;4.87;0.70;;;;;;;;;;4275152;33;20199;-75
2021/10/12 14:11:46;;;;;;;4.00;0.60;;;;;;;;;;4275109;33;20161;-76
2021/10/12 14:14:11;;;;;;;4.75;0.70;;;;;;;;;;4283949;33;20218;-75
2021/10/12 14:19:43;;;;;;;2.42;0.77;;;;;;;;;;4291229;33;20564;-75
2021/10/12 14:22:32;;;;;;;1.92;0.73;;;;;;;;;;4288345;33;20149;-71
2021/10/12 14:25:06;;;;;;;4.32;0.95;;;;;;;;;;4280046;33;20176;-75
2021/10/12 14:27:35;;;;;;;3.78;0.62;;;;;;;;;;4286946;33;20219;-73
2021/10/12 14:30:02;;;;;;;5.15;0.80;;;;;;;;;;4286694;33;20252;-75
2021/10/12 14:32:48;;;;;;;6.60;1.15;;;;;;;;;;4286243;33;20591;-73
2021/10/12 14:35:16;;;;;;;4.18;0.82;;;;;;;;;;4286704;33;20192;-76
2021/10/12 14:37:45;;;;;;;4.12;0.77;;;;;;;;;;4286341;33;20214;-75
2021/10/12 14:40:12;;;;;;;7.10;1.00;;;;;;;;;;4287230;33;20141;-74
2021/10/12 14:42:48;;;;;;;;;;;;;;;;;;;;;
2021/10/12 14:45:14;;;;;;;5.45;1.10;;;;;;;;;;4287571;33;20174;-76
2021/10/12 14:47:44;;;;;;;3.62;0.70;;;;;;;;;;4286504;33;20498;-74
2021/10/12 14:50:17;;;;;;;3.08;1.00;;;;;;;;;;4288448;33;20212;-72
2021/10/12 14:52:43;;;;;;;9.13;1.20;;;;;;;;;;4287929;33;20168;-74
2021/10/12 14:55:09;;;;;;;11.02;1.50;;;;;;;;;;4286808;33;20554;-75
2021/10/12 14:57:34;;;;;;;7.30;1.20;;;;;;;;;;4287513;33;20161;-74
2021/10/12 15:00:00;;;;;;;6.53;1.20;;;;;;;;;;4286410;33;20190;-73
2021/10/12 15:02:25;;;;;;;6.85;1.30;;;;;;;;;;4287461;33;20175;-74
2021/10/12 15:04:53;;;;;;;5.55;1.10;;;;;;;;;;4287534;33;20604;-73
2021/10/12 15:07:19;;;;;;;3.92;1.00;;;;;;;;;;4287774;33;20125;-74
2021/10/12 15:09:44;;;;;;;5.47;1.02;;;;;;;;;;4286247;33;20156;-72
2021/10/12 15:12:10;;;;;;;5.03;1.40;;;;;;;;;;4287682;33;20555;-74
2021/10/12 15:14:35;;;;;;;6.55;1.08;;;;;;;;;;4295004;33;20164;-74
2021/10/12 15:17:01;;;;;;;4.40;1.08;;;;;;;;;;4288054;33;20183;-74
2021/10/12 15:19:27;;;;;;;7.20;1.42;;;;;;;;;;4285430;33;20169;-73
2021/10/12 15:21:56;;;;;;;6.80;1.30;;;;;;;;;;4278154;33;20199;-74
2021/10/12 15:24:21;;;;;;;5.80;0.90;;;;;;;;;;4301268;33;20528;-74
2021/10/12 15:26:47;;;;;;;9.90;1.50;;;;;;;;;;4292797;33;20140;-73
2021/10/12 15:29:12;;;;;;;2.80;0.90;;;;;;;;;;4286942;33;20199;-74
2021/10/12 15:32:01;;;;;;;8.00;1.30;;;;;;;;;;4285999;33;20458;-74
2021/10/12 15:34:29;;;;;;;8.70;1.42;;;;;;;;;;4290269;33;20267;-73
2021/10/12 15:36:55;;;;;;;6.75;1.02;;;;;;;;;;4288029;33;20187;-72
2021/10/12 15:39:24;;;;;;;5.07;1.20;;;;;;;;;;4301249;33;20211;-74
2021/10/12 15:41:53;;;;;;;6.95;1.20;;;;;;;;;;4287988;33;20157;-73
2021/10/12 15:44:31;;;;;;;7.03;1.10;;;;;;;;;;4301296;33;20625;-75
2021/10/12 15:47:00;;;;;;;7.62;1.20;;;;;;;;;;4288113;33;20160;-73
2021/10/12 15:49:34;;;;;;;6.37;1.10;;;;;;;;;;4288076;33;20164;-74
2021/10/12 15:52:04;;;;;;;5.07;1.00;;;;;;;;;;4288270;33;20182;-75
2021/10/12 15:54:37;;;;;;;18.85;2.10;;;;;;;;;;4288266;33;20608;-74
2021/10/12 15:57:08;;;;;;;18.08;2.12;;;;;;;;;;4287589;33;20164;-74
2021/10/12 16:02:20;;;;;;;8.35;1.20;;;;;;;;;;4314099;33;20207;-74
2021/10/12 16:04:56;;;;;;;6.50;1.05;;;;;;;;;;4302153;33;20156;-74
2021/10/12 16:07:21;;;;;;;8.18;1.30;;;;;;;;;;4302681;33;20493;-74
2021/10/12 16:10:02;;;;;;;8.77;1.37;;;;;;;;;;4315077;33;20160;-73
2021/10/12 16:12:46;;;;;;;5.93;1.40;;;;;;;;;;4301801;33;20183;-73
2021/10/12 16:24:03;;;;;;;6.68;1.20;;;;;;;;;;4287162;33;20140;-74
2021/10/12 16:26:30;;;;;;;4.22;1.10;;;;;;;;;;4272968;33;20175;-75
2021/10/12 16:29:16;;;;;;;;;;;;;;;;;;;;;
2021/10/12 16:32:06;;;;;;;8.50;1.75;;;;;;;;;;4300871;33;20587;-74
2021/10/12 16:34:34;;;;;;;4.87;1.40;;;;;;;;;;4276836;33;20215;-74
2021/10/12 16:37:05;;;;;;;5.65;1.10;;;;;;;;;;4276014;33;20549;-73
2021/10/12 16:39:39;;;;;;;9.75;1.02;;;;;;;;;;4289148;33;20215;-74
2021/10/12 16:42:10;;;;;;;8.98;1.75;;;;;;;;;;4278044;33;20244;-73
2021/10/12 16:44:47;;;;;;;8.52;1.40;;;;;;;;;;4289413;33;20457;-74
2021/10/12 16:50:09;;;;;;;6.00;1.40;;;;;;;;;;4286575;33;20171;-74
2021/10/12 16:52:37;;;;;;;8.02;2.03;;;;;;;;;;4289491;33;20138;-74
2021/10/12 16:55:03;;;;;;;7.40;1.45;;;;;;;;;;4275653;33;20448;-74
2021/10/12 16:57:28;;;;;;;5.45;1.40;;;;;;;;;;4276368;33;20194;-75
2021/10/12 17:00:02;;;;;;;6.07;1.35;;;;;;;;;;4276264;33;20199;-73
2021/10/12 17:02:51;;;;;;;6.03;1.37;;;;;;;;;;4276172;33;20188;-71
2021/10/12 17:05:17;;;;;;;6.80;1.27;;;;;;;;;;4289855;33;20141;-74
2021/10/12 17:07:43;;;;;;;5.40;1.35;;;;;;;;;;4276085;33;20653;-75
2021/10/12 17:10:49;;;;;;;6.75;1.50;;;;;;;;;;4275913;33;20164;-70
2021/10/12 17:16:44;;;;;;;;;;;;;;;;;;;;;
2021/10/12 17:19:23;;;;;;;6.45;1.40;;;;;;;;;;4303069;33;20242;-74
2021/10/12 17:22:43;;;;;;;7.22;1.33;;;;;;;;;;4304135;33;20161;-76
2021/10/12 17:25:09;;;;;;;8.57;1.83;;;;;;;;;;4297373;33;20582;-74
2021/10/12 17:27:43;;;;;;;9.60;1.40;;;;;;;;;;4299603;33;20168;-73
2021/10/12 17:30:14;;;;;;;4.30;1.30;;;;;;;;;;4290739;33;20183;-74
2021/10/12 17:33:00;;;;;;;;;;;;;;;;;;;;;
2021/10/12 17:35:25;;;;;;;8.63;1.75;;;;;;;;;;4303455;33;20172;-75
2021/10/12 17:37:56;;;;;;;4.57;1.37;;;;;;;;;;4290356;33;20160;-74
2021/10/12 17:40:21;;;;;;;5.20;1.67;;;;;;;;;;4289750;33;20490;-75
2021/10/12 17:42:49;;;;;;;9.57;2.15;;;;;;;;;;4290046;33;20156;-74
2021/10/12 17:45:16;;;;;;;6.40;1.60;;;;;;;;;;4302767;33;20179;-73
2021/10/12 17:47:45;;;;;;;9.88;2.35;;;;;;;;;;4303330;33;20149;-73
2021/10/12 17:50:33;;;;;;;6.25;2.10;;;;;;;;;;4303108;33;20133;-74
2021/10/12 17:52:58;;;;;;;7.10;2.20;;;;;;;;;;4303126;33;20128;-74
2021/10/12 17:55:34;;;;;;;7.70;2.08;;;;;;;;;;4303216;33;20180;-73
2021/10/12 17:57:59;;;;;;;8.18;2.10;;;;;;;;;;4303360;33;20223;-73
2021/10/12 18:00:25;;;;;;;11.98;1.98;;;;;;;;;;4290061;33;20164;-74
2021/10/12 18:02:52;;;;;;;6.82;2.72;;;;;;;;;;4302666;33;20132;-74
2021/10/12 18:05:38;;;;;;;7.55;1.92;;;;;;;;;;4289268;33;20161;-74